Time;durP1;ratioP1;P1;durP2;ratioP2;P2;SDS_P1;SDS_P2;PMS_P1;PMS_P2;Temp;Humidity;BMP_temperature;BMP_pressure;BME280_temperature;BME280_humidity;BME280_pressure;Samples;Min_cycle;Max_cycle;Signal;HPM_P1;HPM_P2
2022/08/28 00:04:31;;;;;;;26.70;3.55;;;;;;;21.83;55.67;100007.25;10374704;28;20053;-73
2022/08/28 00:09:32;;;;;;;19.88;3.45;;;;;;;21.51;56.18;99986.28;10374575;28;20510;-72
2022/08/28 00:14:33;;;;;;;13.68;2.72;;;;;;;21.54;56.50;100018.22;10373704;28;20050;-72
2022/08/28 00:19:34;;;;;;;19.67;3.17;;;;;;;21.38;56.81;100005.53;10374369;28;20608;-72
2022/08/28 00:24:35;;;;;;;19.80;3.05;;;;;;;20.69;57.25;99930.16;10374096;28;20180;-72
2022/08/28 00:29:37;;;;;;;13.88;2.72;;;;;;;20.78;57.06;99944.88;10373233;28;20117;-72
2022/08/28 00:34:38;;;;;;;28.75;3.60;;;;;;;20.78;57.69;99942.19;10372665;28;20049;-72
2022/08/28 00:39:39;;;;;;;15.05;2.47;;;;;;;21.16;57.35;100022.47;10373100;28;20045;-73
2022/08/28 00:44:40;;;;;;;17.50;2.55;;;;;;;20.94;57.84;99983.78;10373422;28;20049;-72
2022/08/28 00:49:53;;;;;;;16.15;2.92;;;;;;;20.93;58.79;100007.22;10373871;28;20041;-72
2022/08/28 00:54:59;;;;;;;16.77;2.77;;;;;;;20.42;58.38;99948.81;10373141;28;20149;-72
2022/08/28 01:00:03;;;;;;;12.23;2.63;;;;;;;20.70;58.69;100021.72;10372296;28;20112;-72
2022/08/28 01:05:08;;;;;;;10.18;2.25;;;;;;;20.54;59.03;100021.66;10372276;28;20513;-72
2022/08/28 01:10:13;;;;;;;11.07;2.13;;;;;;;20.27;59.71;100000.63;10372085;28;20073;-72
2022/08/28 01:15:19;;;;;;;28.92;3.65;;;;;;;20.17;59.48;99968.06;10371946;28;20394;-72
2022/08/28 01:20:24;;;;;;;12.60;2.85;;;;;;;20.14;60.26;99972.06;10372556;28;20475;-72
2022/08/28 01:25:29;;;;;;;81.25;6.43;;;;;;;20.48;60.68;100042.28;10372185;28;20045;-73
2022/08/28 01:30:31;;;;;;;77.75;5.70;;;;;;;20.28;60.47;100016.56;10387342;28;20066;-73
2022/08/28 01:35:36;;;;;;;13.13;2.90;;;;;;;20.27;61.16;100057.25;10372085;28;20585;-73
2022/08/28 01:40:41;;;;;;;19.63;3.30;;;;;;;20.17;61.05;100022.00;10371340;28;20037;-73
2022/08/28 01:45:45;;;;;;;37.80;3.72;;;;;;;20.19;60.90;100036.88;10377171;28;20038;-73
2022/08/28 01:50:46;;;;;;;;;;;;;;;20.46;60.61;100045.25;10380601;28;20044;-73
2022/08/28 01:55:48;;;;;;;16.35;3.40;;;;;;;20.01;60.64;100012.75;10378501;28;19931;-73
2022/08/28 02:00:51;;;;;;;15.18;2.80;;;;;;;19.75;61.47;100011.41;10378756;28;20052;-72
2022/08/28 02:05:52;;;;;;;22.05;3.40;;;;;;;19.72;62.25;100034.28;10380441;28;20042;-73
2022/08/28 02:10:53;;;;;;;46.50;5.28;;;;;;;19.59;63.33;100040.69;10378923;28;20042;-73
2022/08/28 02:15:54;;;;;;;19.63;3.42;;;;;;;19.48;63.35;100043.38;10378894;28;20048;-72
2022/08/28 02:20:54;;;;;;;17.40;3.10;;;;;;;19.16;64.09;100012.19;10378687;28;20070;-72
2022/08/28 02:25:55;;;;;;;25.05;3.53;;;;;;;19.41;64.56;100075.78;10378564;28;20049;-72
2022/08/28 02:30:56;;;;;;;16.67;3.13;;;;;;;19.20;65.08;100057.50;10376928;28;20040;-73
2022/08/28 02:35:57;;;;;;;19.67;3.40;;;;;;;19.33;65.61;100085.06;10377560;28;20042;-73
2022/08/28 02:40:58;;;;;;;89.25;7.80;;;;;;;18.87;65.79;100003.13;10378035;28;20486;-73
2022/08/28 02:45:59;;;;;;;89.47;7.63;;;;;;;19.39;66.18;100089.50;10377110;28;20041;-72
2022/08/28 02:51:02;;;;;;;28.95;4.15;;;;;;;19.37;66.85;100082.72;10377761;28;20041;-72
2022/08/28 02:56:04;;;;;;;15.20;3.47;;;;;;;19.53;66.47;100079.34;10392064;28;20077;-72
2022/08/28 03:01:08;;;;;;;27.83;4.35;;;;;;;19.78;66.69;100089.09;10377253;28;20042;-73
2022/08/28 03:06:11;;;;;;;19.75;3.60;;;;;;;19.98;67.29;100097.66;10376495;28;20041;-72
2022/08/28 03:11:12;;;;;;;53.60;5.47;;;;;;;20.26;66.91;100099.59;10376861;28;20042;-72
2022/08/28 03:16:12;;;;;;;26.23;3.25;;;;;;;20.59;66.53;100081.94;10376715;28;20405;-73
2022/08/28 03:21:13;;;;;;;32.40;4.32;;;;;;;20.68;65.88;100036.50;10377046;28;20069;-73
2022/08/28 03:26:18;;;;;;;18.90;3.20;;;;;;;21.48;65.07;100094.91;10376045;28;20576;-73
2022/08/28 03:31:22;;;;;;;28.83;2.95;;;;;;;22.22;63.51;100094.63;10374779;28;20402;-73
2022/08/28 03:36:26;;;;;;;138.88;9.93;;;;;;;22.90;62.36;100080.78;10375758;28;20490;-73
2022/08/28 03:41:28;;;;;;;23.67;3.58;;;;;;;23.60;60.11;100030.97;10376445;28;20048;-73
2022/08/28 03:46:33;;;;;;;35.60;4.77;;;;;;;24.87;58.13;100089.63;10375225;28;20038;-73
2022/08/28 03:51:34;;;;;;;10.18;2.88;;;;;;;25.39;57.54;100085.88;10375243;28;20049;-73
2022/08/28 03:56:35;;;;;;;13.88;2.65;;;;;;;25.77;55.54;100031.97;10374999;28;20081;-73
2022/08/28 04:01:37;;;;;;;19.85;3.25;;;;;;;26.46;53.54;100029.53;10374924;28;20167;-73
2022/08/28 04:06:37;;;;;;;33.80;6.10;;;;;;;26.84;53.16;100066.13;10389266;28;20197;-73
2022/08/28 04:11:43;;;;;;;28.48;5.28;;;;;;;27.62;51.27;100081.59;10389758;28;20124;-73
2022/08/28 04:16:44;;;;;;;18.00;2.95;;;;;;;28.16;50.14;100094.16;10373679;28;20072;-75
2022/08/28 04:21:45;;;;;;;14.52;2.65;;;;;;;28.59;49.10;100075.06;10374305;28;20069;-75
2022/08/28 04:26:46;;;;;;;7.15;1.73;;;;;;;28.30;49.02;100047.00;10374045;28;20038;-76
2022/08/28 04:31:47;;;;;;;14.68;1.80;;;;;;;28.55;48.99;100071.28;10373162;28;20140;-76
2022/08/28 04:36:50;;;;;;;13.80;2.42;;;;;;;28.56;48.77;100092.03;10373571;28;20099;-77
2022/08/28 04:41:54;;;;;;;14.07;2.42;;;;;;;28.13;49.03;100081.09;10373954;28;20504;-77
2022/08/28 04:46:54;;;;;;;20.02;2.88;;;;;;;28.02;49.42;100089.69;10373078;28;20034;-75
2022/08/28 04:51:55;;;;;;;33.13;17.92;;;;;;;27.98;49.24;100086.72;10372782;28;20050;-75
2022/08/28 04:56:56;;;;;;;30.08;10.60;;;;;;;27.29;49.95;100018.63;10373034;28;20493;-82
2022/08/28 05:01:57;;;;;;;24.48;3.55;;;;;;;27.33;50.67;100081.59;10387363;28;20041;-77
2022/08/28 05:06:57;;;;;;;19.02;3.50;;;;;;;27.08;50.64;100056.13;10372693;28;20050;-75
2022/08/28 05:12:02;;;;;;;18.30;2.85;;;;;;;26.49;50.92;99977.22;10372613;28;20049;-75
2022/08/28 05:17:03;;;;;;;25.25;4.38;;;;;;;27.31;50.84;100076.44;10372535;28;20053;-80
2022/08/28 05:22:04;;;;;;;16.48;3.17;;;;;;;27.38;50.57;100069.84;10372217;28;20044;-75
2022/08/28 05:27:05;;;;;;;16.15;3.22;;;;;;;27.58;50.35;100086.00;10371684;28;20037;-76
2022/08/28 05:32:06;;;;;;;12.63;2.47;;;;;;;27.72;49.69;100076.03;10371480;28;20085;-74
2022/08/28 05:37:08;;;;;;;12.35;2.47;;;;;;;27.85;49.72;100090.13;10371422;28;20081;-77
2022/08/28 05:42:09;;;;;;;18.65;2.92;;;;;;;27.95;49.46;100093.56;10371251;28;20045;-77
2022/08/28 05:47:09;;;;;;;25.42;3.95;;;;;;;28.03;49.02;100064.84;10371226;28;20074;-77
2022/08/28 05:52:10;;;;;;;14.20;2.53;;;;;;;28.31;48.80;100097.81;10371422;28;20041;-76
2022/08/28 05:57:11;;;;;;;11.65;2.47;;;;;;;28.39;48.68;100083.47;10372103;28;20529;-77
2022/08/28 06:02:12;;;;;;;7.70;2.50;;;;;;;28.41;48.38;100092.25;10370968;28;20053;-75
2022/08/28 06:07:14;;;;;;;8.85;2.22;;;;;;;28.52;47.92;100080.06;10372007;28;20041;-77
2022/08/28 06:12:15;;;;;;;24.83;3.90;;;;;;;28.82;47.60;100081.56;10372002;28;20061;-74
2022/08/28 06:17:16;;;;;;;14.88;2.88;;;;;;;29.03;46.94;100076.63;10371580;28;20050;-76
2022/08/28 06:22:17;;;;;;;36.28;3.85;;;;;;;29.31;46.34;100082.19;10369864;28;20440;-75
2022/08/28 06:27:18;;;;;;;19.08;3.45;;;;;;;29.50;45.89;100077.50;10370621;28;20521;-77
2022/08/28 06:32:19;;;;;;;10.63;3.10;;;;;;;29.45;45.56;100066.63;10376022;28;20045;-76
2022/08/28 06:37:20;;;;;;;11.27;2.17;;;;;;;29.46;45.25;100060.03;10377674;28;20049;-76
2022/08/28 06:42:21;;;;;;;14.70;2.75;;;;;;;29.68;45.56;100053.13;10378511;28;20397;-76
2022/08/28 06:47:22;;;;;;;10.18;2.50;;;;;;;29.69;45.00;100024.63;10377627;28;20448;-75
2022/08/28 06:52:23;;;;;;;19.13;2.95;;;;;;;29.99;44.53;100062.34;10377084;28;20092;-77
2022/08/28 06:57:25;;;;;;;10.27;2.40;;;;;;;30.21;44.33;100055.38;10377803;28;20563;-75
2022/08/28 07:02:25;;;;;;;13.48;2.35;;;;;;;30.00;44.11;99978.25;10376984;28;20038;-76
2022/08/28 07:07:26;;;;;;;13.02;2.75;;;;;;;30.54;42.86;100050.53;10376315;28;20057;-76
2022/08/28 07:12:27;;;;;;;12.38;2.92;;;;;;;30.50;41.08;100044.06;10376294;28;20125;-73
2022/08/28 07:17:28;;;;;;;11.15;2.95;;;;;;;30.85;40.71;100045.19;10376410;28;20046;-75
2022/08/28 07:22:28;;;;;;;9.57;3.42;;;;;;;31.19;40.65;100038.34;10375998;28;20033;-75
2022/08/28 07:27:30;;;;;;;19.85;3.10;;;;;;;30.92;39.70;99987.97;10376300;28;20052;-77
2022/08/28 07:32:32;;;;;;;22.40;3.40;;;;;;;31.31;38.08;100033.06;10375915;28;20044;-75
2022/08/28 07:37:33;;;;;;;14.60;3.33;;;;;;;31.53;38.24;100013.06;10376035;28;20053;-74
2022/08/28 07:47:53;;;;;;;13.18;2.65;;;;;;;31.66;36.70;99986.59;10375510;28;20512;-74
2022/08/28 07:52:53;;;;;;;25.33;3.80;;;;;;;31.70;36.21;99957.38;10374080;28;20046;-76
2022/08/28 07:57:54;;;;;;;29.73;3.75;;;;;;;32.04;36.11;99986.09;10374295;28;20192;-78
2022/08/28 08:02:56;;;;;;;16.17;3.55;;;;;;;32.16;35.74;99996.44;10374964;28;20037;-76
2022/08/28 08:07:56;;;;;;;15.43;2.88;;;;;;;32.05;35.02;99946.50;10374812;28;20041;-76
2022/08/28 08:12:57;;;;;;;15.73;3.00;;;;;;;32.59;35.34;99985.50;10375321;28;20050;-73
2022/08/28 08:17:58;;;;;;;17.33;3.10;;;;;;;32.73;34.11;99985.34;10374237;28;20042;-77
2022/08/28 08:22:59;;;;;;;20.58;3.78;;;;;;;33.03;34.24;99989.06;10374134;28;20053;-75
2022/08/28 08:28:00;;;;;;;22.35;4.13;;;;;;;33.04;34.33;99973.34;10373872;28;20065;-74
2022/08/28 08:33:01;;;;;;;16.00;3.22;;;;;;;33.01;35.06;99983.06;10373745;28;20442;-73
2022/08/28 08:38:01;;;;;;;11.60;2.70;;;;;;;32.96;34.79;99984.00;10373148;28;20041;-76
2022/08/28 08:43:02;;;;;;;40.80;4.25;;;;;;;32.80;35.29;99925.13;10373376;28;20042;-77
2022/08/28 08:48:03;;;;;;;15.95;3.72;;;;;;;33.03;34.62;99952.47;10373139;28;20128;-74
2022/08/28 08:53:10;;;;;;;20.98;3.42;;;;;;;33.56;34.60;99979.50;10372418;28;20038;-74
2022/08/28 08:58:19;;;;;;;15.93;3.33;;;;;;;33.58;34.30;99962.66;10371724;28;20148;-75
2022/08/28 09:03:26;;;;;;;18.48;4.45;;;;;;;33.61;33.52;99940.75;10372589;28;20095;-72
2022/08/28 09:08:30;;;;;;;9.90;3.28;;;;;;;33.89;33.37;99964.25;10372713;28;20049;-76
2022/08/28 09:13:51;;;;;;;20.60;3.80;;;;;;;33.93;34.27;99957.75;10372582;28;20092;-76
2022/08/28 09:18:54;;;;;;;30.43;4.57;;;;;;;33.90;34.39;99919.03;10371120;28;20154;-74
2022/08/28 09:23:54;;;;;;;35.00;5.45;;;;;;;34.34;32.65;99919.53;10371834;28;20041;-75
2022/08/28 09:29:03;;;;;;;31.45;4.60;;;;;;;34.51;31.21;99941.44;10372268;28;20128;-76
2022/08/28 09:34:31;;;;;;;17.27;4.78;;;;;;;34.70;31.42;99933.50;10372150;28;20087;-74
2022/08/28 09:39:34;;;;;;;19.35;3.22;;;;;;;34.09;31.65;99861.53;10372252;28;20068;-73
2022/08/28 09:44:48;;;;;;;22.90;4.25;;;;;;;34.88;30.55;99919.50;10372010;28;20132;-75
2022/08/28 09:49:49;;;;;;;24.83;4.28;;;;;;;35.05;30.29;99901.97;10371600;28;20061;-76
2022/08/28 09:54:50;;;;;;;17.42;3.97;;;;;;;35.12;30.44;99908.56;10371651;28;20069;-74
2022/08/28 09:59:51;;;;;;;23.67;5.20;;;;;;;35.23;29.47;99892.31;10372356;28;20041;-77
2022/08/28 10:04:58;;;;;;;24.13;4.95;;;;;;;35.03;29.89;99835.22;10373420;28;20329;-75
2022/08/28 10:10:17;;;;;;;16.13;3.63;;;;;;;35.50;29.48;99881.72;10378738;28;20042;-75
2022/08/28 10:15:42;;;;;;;22.85;4.68;;;;;;;35.63;29.10;99881.41;10378380;28;20060;-74
2022/08/28 10:21:01;;;;;;;35.40;5.70;;;;;;;35.48;29.01;99875.72;10378911;28;20382;-75
2022/08/28 10:26:32;;;;;;;27.60;5.55;;;;;;;35.81;28.59;99864.53;10378209;28;20145;-73
2022/08/28 10:31:45;;;;;;;44.07;6.73;;;;;;;35.82;27.60;99861.44;10378399;28;20033;-74
2022/08/28 10:37:02;;;;;;;31.60;7.05;;;;;;;35.32;28.30;99788.06;10377630;28;20449;-75
2022/08/28 10:42:05;;;;;;;67.68;7.07;;;;;;;35.75;28.23;99847.41;10378644;28;20042;-73
2022/08/28 10:47:07;;;;;;;30.17;5.85;;;;;;;35.88;28.14;99857.28;10378462;28;20438;-73
2022/08/28 10:52:08;;;;;;;;;;;;;;;36.18;28.39;99840.38;10377613;28;20076;-73
2022/08/28 10:57:29;;;;;;;45.33;6.37;;;;;;;35.92;27.92;99842.75;10378556;28;19966;-74
2022/08/28 11:02:31;;;;;;;28.45;6.25;;;;;;;35.56;28.51;99775.41;10377255;28;20498;-74
2022/08/28 11:07:44;;;;;;;25.20;6.03;;;;;;;36.10;28.13;99838.56;10375644;28;20576;-76
2022/08/28 11:12:45;;;;;;;28.42;6.10;;;;;;;36.03;28.54;99819.81;10377158;28;20038;-74
2022/08/28 11:17:46;;;;;;;54.43;6.40;;;;;;;35.87;29.24;99797.63;10375848;28;20452;-75
2022/08/28 11:23:09;;;;;;;30.70;5.57;;;;;;;35.76;28.94;99790.19;10375885;28;20042;-73
2022/08/28 11:28:35;;;;;;;21.48;5.35;;;;;;;35.87;29.26;99803.16;10375753;28;20553;-73
2022/08/28 11:33:43;;;;;;;24.83;5.78;;;;;;;35.93;29.36;99805.66;10375831;28;20042;-75
2022/08/28 11:38:44;;;;;;;19.15;4.85;;;;;;;35.79;28.97;99809.63;10375247;28;20464;-72
2022/08/28 11:43:46;;;;;;;74.88;8.30;;;;;;;35.65;29.40;99782.38;10375603;28;20042;-76
2022/08/28 11:48:52;;;;;;;28.08;4.93;;;;;;;35.85;29.58;99790.84;10376214;28;20405;-72
2022/08/28 11:54:13;;;;;;;30.55;5.88;;;;;;;35.74;28.19;99770.38;10376206;28;20042;-76
2022/08/28 11:59:39;;;;;;;19.40;4.40;;;;;;;36.00;28.86;99797.56;10376222;28;20425;-74
2022/08/28 12:04:42;;;;;;;29.95;5.07;;;;;;;35.79;28.34;99779.22;10374767;28;20599;-74
2022/08/28 12:09:49;;;;;;;25.90;4.43;;;;;;;35.74;27.38;99781.44;10374467;28;20038;-77
2022/08/28 12:15:01;;;;;;;22.38;4.45;;;;;;;35.29;27.86;99735.50;10374058;28;20124;-73
2022/08/28 12:20:20;;;;;;;26.80;4.30;;;;;;;35.30;27.45;99742.63;10373795;28;20034;-72
2022/08/28 12:25:30;;;;;;;23.75;3.90;;;;;;;35.59;27.22;99808.66;10373702;28;20502;-78
2022/08/28 12:30:40;;;;;;;18.33;3.97;;;;;;;35.48;27.54;99798.41;10373325;28;20045;-74
2022/08/28 12:35:41;;;;;;;19.38;3.78;;;;;;;35.43;27.64;99780.13;10373604;28;20145;-74
2022/08/28 12:40:52;;;;;;;20.30;3.58;;;;;;;35.46;28.02;99795.19;10373066;28;20121;-76
2022/08/28 12:46:01;;;;;;;18.83;3.83;;;;;;;35.19;28.64;99779.00;10373505;28;20050;-72
2022/08/28 12:51:18;;;;;;;17.42;3.83;;;;;;;35.29;28.45;99805.34;10373802;28;20088;-73
2022/08/28 12:56:21;;;;;;;16.50;4.13;;;;;;;35.02;29.73;99750.81;10372692;28;20058;-73
2022/08/28 13:01:32;;;;;;;22.58;4.00;;;;;;;35.38;29.97;99802.44;10372720;28;20145;-72
2022/08/28 13:06:36;;;;;;;;;;;;;;;35.57;30.36;99790.81;10372802;28;20058;-73
2022/08/28 13:11:39;;;;;;;19.73;4.43;;;;;;;35.34;30.68;99793.25;10372685;28;19922;-74
2022/08/28 13:16:45;;;;;;;20.60;4.47;;;;;;;35.00;31.11;99742.88;10372172;28;20081;-74
2022/08/28 13:21:50;;;;;;;14.57;4.32;;;;;;;35.32;31.54;99796.34;10372556;28;20034;-74
2022/08/28 13:27:14;;;;;;;32.22;4.45;;;;;;;35.02;31.70;99742.53;10371507;28;20532;-73
2022/08/28 13:32:16;;;;;;;16.23;3.83;;;;;;;34.89;31.53;99750.84;10372237;28;20125;-72
2022/08/28 13:37:37;;;;;;;;;;;;;;;35.48;30.99;99806.69;10372850;28;20046;-72
2022/08/28 13:42:38;;;;;;;22.63;4.57;;;;;;;35.31;29.35;99816.84;10379373;28;19921;-74
2022/08/28 13:47:39;;;;;;;35.15;5.13;;;;;;;35.18;25.34;99818.81;10381183;28;20038;-71
2022/08/28 13:52:40;;;;;;;73.13;7.43;;;;;;;35.06;24.71;99809.72;10380688;28;20042;-74
2022/08/28 13:57:42;;;;;;;38.17;6.45;;;;;;;34.95;23.62;99820.41;10379121;28;20111;-74
2022/08/28 14:08:02;;;;;;;114.22;11.32;;;;;;;34.53;22.00;99837.91;10378762;28;20493;-74
2022/08/28 14:13:03;;;;;;;53.78;6.90;;;;;;;34.27;21.84;99818.88;10378582;28;20053;-77
2022/08/28 14:18:04;;;;;;;45.58;7.32;;;;;;;34.06;21.87;99818.91;10379151;28;20052;-74
2022/08/28 14:23:05;;;;;;;68.57;8.35;;;;;;;33.95;21.63;99842.47;10378801;28;20133;-74
2022/08/28 14:28:05;;;;;;;58.00;7.30;;;;;;;33.79;21.54;99844.25;10378016;28;20145;-72
2022/08/28 14:33:06;;;;;;;43.53;7.55;;;;;;;33.29;21.82;99804.53;10377776;28;20095;-76
2022/08/28 14:38:08;;;;;;;79.80;8.05;;;;;;;33.47;21.96;99852.03;10378565;28;20041;-74
2022/08/28 14:43:10;;;;;;;67.13;7.70;;;;;;;33.35;22.17;99855.50;10377496;28;20150;-72
2022/08/28 14:48:13;;;;;;;49.65;6.88;;;;;;;32.82;21.98;99781.75;10377985;28;20269;-75
2022/08/28 14:53:14;;;;;;;48.70;7.22;;;;;;;32.88;22.56;99836.28;10376007;28;20091;-76
2022/08/28 14:58:16;;;;;;;48.00;8.07;;;;;;;32.68;22.42;99856.25;10377662;28;20144;-73
2022/08/28 15:03:19;;;;;;;83.32;9.68;;;;;;;32.42;22.64;99845.28;10377824;28;20041;-72
2022/08/28 15:08:19;;;;;;;48.97;7.65;;;;;;;32.36;22.84;99861.13;10377617;28;20045;-74
2022/08/28 15:13:20;;;;;;;59.50;8.13;;;;;;;32.08;22.66;99851.63;10376850;28;20033;-74
2022/08/28 15:18:21;;;;;;;74.50;8.45;;;;;;;31.92;22.80;99859.53;10377266;28;20046;-74
2022/08/28 15:23:22;;;;;;;63.22;7.72;;;;;;;31.65;23.30;99860.59;10377177;28;20460;-75
2022/08/28 15:28:23;;;;;;;73.57;7.15;;;;;;;31.56;23.35;99883.38;10375706;28;20045;-74
2022/08/28 15:33:23;;;;;;;41.92;7.47;;;;;;;31.36;23.67;99882.03;10376059;28;20065;-76
2022/08/28 15:38:25;;;;;;;41.83;6.18;;;;;;;31.16;24.11;99890.78;10375918;28;20390;-74
2022/08/28 15:43:26;;;;;;;42.15;6.85;;;;;;;31.02;23.82;99898.31;10374280;28;20131;-73
2022/08/28 15:48:27;;;;;;;43.15;6.72;;;;;;;30.64;23.92;99871.31;10374980;28;20537;-74
2022/08/28 15:53:28;;;;;;;48.67;7.00;;;;;;;30.63;24.38;99897.94;10374744;28;20104;-73
2022/08/28 15:58:30;;;;;;;58.08;7.30;;;;;;;30.50;24.79;99911.69;10375410;28;20058;-72
2022/08/28 16:03:31;;;;;;;48.40;7.10;;;;;;;30.21;24.94;99910.16;10374466;28;20037;-74
2022/08/28 16:08:32;;;;;;;49.22;5.90;;;;;;;30.14;25.02;99921.53;10383710;28;20041;-74
2022/08/28 16:13:34;;;;;;;35.20;5.28;;;;;;;30.00;25.19;99929.78;10406683;28;20401;-69
2022/08/28 16:18:34;;;;;;;40.85;5.22;;;;;;;29.84;25.32;99931.22;10373956;28;20133;-68
2022/08/28 16:23:36;;;;;;;41.95;6.93;;;;;;;29.72;25.56;99939.97;10399351;28;20457;-68
2022/08/28 16:28:37;;;;;;;56.42;7.28;;;;;;;29.45;25.94;99929.81;10404893;28;20410;-70
2022/08/28 16:33:38;;;;;;;49.15;7.45;;;;;;;29.00;26.02;99874.03;10373844;28;20417;-70
2022/08/28 16:38:41;;;;;;;52.90;7.75;;;;;;;28.85;26.41;99892.34;10373041;28;20041;-70
2022/08/28 16:43:42;;;;;;;45.80;6.30;;;;;;;29.06;26.96;99952.97;10373003;28;20038;-70
2022/08/28 16:48:44;;;;;;;37.97;5.75;;;;;;;28.88;27.05;99954.63;10372847;28;20281;-69
2022/08/28 16:53:45;;;;;;;27.67;4.85;;;;;;;28.77;27.29;99964.09;10373626;28;20125;-70
2022/08/28 16:58:46;;;;;;;24.80;4.57;;;;;;;28.64;27.81;99964.84;10373355;28;20058;-71
2022/08/28 17:03:47;;;;;;;21.05;4.22;;;;;;;27.87;28.11;99873.09;10372980;28;20050;-70
2022/08/28 17:08:48;;;;;;;32.22;3.92;;;;;;;28.21;28.36;99954.00;10372579;28;20502;-68
2022/08/28 17:13:49;;;;;;;20.88;4.07;;;;;;;28.21;28.65;99976.66;10372795;28;20108;-68
2022/08/28 17:18:50;;;;;;;26.95;4.18;;;;;;;27.75;28.46;99928.09;10372497;28;20108;-68
2022/08/28 17:23:51;;;;;;;22.05;3.67;;;;;;;28.00;28.49;99967.13;10372283;28;20045;-70
2022/08/28 17:28:52;;;;;;;21.50;3.60;;;;;;;27.70;28.23;99930.06;10371911;28;20033;-70
2022/08/28 17:33:53;;;;;;;30.08;3.10;;;;;;;27.64;27.98;99939.41;10370988;28;20486;-70
2022/08/28 17:38:54;;;;;;;13.07;2.70;;;;;;;27.42;28.31;99907.22;10371589;28;20046;-69
2022/08/28 17:43:54;;;;;;;13.63;3.15;;;;;;;27.71;28.46;99987.09;10371404;28;20038;-70
2022/08/28 17:48:55;;;;;;;14.43;2.83;;;;;;;27.59;28.27;99986.69;10382630;28;20038;-68
2022/08/28 17:53:56;;;;;;;15.65;3.13;;;;;;;27.46;28.32;99995.53;10374381;28;20569;-68
2022/08/28 17:58:57;;;;;;;18.92;2.45;;;;;;;27.21;28.53;99972.06;10379618;28;20065;-69
2022/08/28 18:03:58;;;;;;;10.38;2.75;;;;;;;26.70;28.70;99898.91;10371123;28;20061;-70
2022/08/28 18:08:59;;;;;;;19.00;3.20;;;;;;;26.90;29.11;99957.88;10371487;28;20044;-70
2022/08/28 18:14:00;;;;;;;19.67;3.22;;;;;;;26.97;29.52;99983.69;10371606;28;20096;-70
2022/08/28 18:19:03;;;;;;;17.85;2.50;;;;;;;26.87;30.04;99989.25;10371707;28;20107;-70
2022/08/28 18:24:05;;;;;;;16.70;3.67;;;;;;;26.81;30.17;99982.22;10372296;28;20069;-73
2022/08/28 18:29:06;;;;;;;28.30;2.90;;;;;;;26.28;30.54;99917.44;10416682;28;20041;-71
2022/08/28 18:34:07;;;;;;;18.63;2.75;;;;;;;26.26;30.92;99925.06;10418625;28;20048;-71
2022/08/28 18:39:09;;;;;;;16.58;2.53;;;;;;;26.54;31.14;99993.59;10417727;28;20091;-71
2022/08/28 18:44:09;;;;;;;14.25;2.75;;;;;;;26.50;31.37;99978.88;10418982;28;20128;-69
2022/08/28 18:49:11;;;;;;;16.45;2.85;;;;;;;26.37;31.77;99977.56;10400552;28;20536;-71
2022/08/28 18:54:14;;;;;;;17.48;2.60;;;;;;;26.22;32.03;99977.66;10418115;28;20063;-69
2022/08/28 18:59:16;;;;;;;18.80;2.50;;;;;;;26.16;32.40;99983.13;10418901;28;20061;-70
2022/08/28 19:04:16;;;;;;;28.00;2.65;;;;;;;26.01;32.91;99975.03;10419052;28;20041;-71
2022/08/28 19:09:17;;;;;;;41.10;4.05;;;;;;;25.92;33.06;99993.84;10417087;28;20519;-72
2022/08/28 19:14:19;;;;;;;18.70;3.35;;;;;;;25.38;33.72;99934.72;10417672;28;20139;-71
2022/08/28 19:19:20;;;;;;;15.70;3.17;;;;;;;25.20;34.52;99927.16;10418318;28;20397;-70
2022/08/28 19:24:21;;;;;;;15.05;3.20;;;;;;;25.10;34.51;99929.84;10417492;28;20068;-71
2022/08/28 19:29:22;;;;;;;14.43;3.45;;;;;;;25.42;35.33;99989.34;10416964;28;20041;-72
2022/08/28 19:34:23;;;;;;;16.88;3.22;;;;;;;25.23;35.74;99989.94;10416476;28;20429;-72
2022/08/28 19:39:24;;;;;;;15.38;3.35;;;;;;;25.16;36.22;99997.56;10415949;28;20485;-70
2022/08/28 19:44:25;;;;;;;30.67;3.70;;;;;;;25.08;36.67;100005.41;10416926;28;20084;-71
2022/08/28 19:49:26;;;;;;;12.73;2.90;;;;;;;24.97;37.12;100008.13;10417075;28;20038;-71
2022/08/28 19:54:27;;;;;;;17.27;3.45;;;;;;;24.77;37.49;99992.63;10414879;28;20033;-69
2022/08/28 19:59:28;;;;;;;18.83;3.25;;;;;;;24.78;38.19;100012.47;10402684;28;20552;-71
2022/08/28 20:04:30;;;;;;;22.27;3.78;;;;;;;24.65;38.29;100015.69;10375500;28;20046;-72
2022/08/28 20:09:31;;;;;;;28.92;3.28;;;;;;;24.11;38.82;99935.44;10374868;28;20048;-72
2022/08/28 20:14:33;;;;;;;18.23;3.00;;;;;;;24.01;39.63;99947.09;10374547;28;20473;-70
2022/08/28 20:19:34;;;;;;;16.08;3.08;;;;;;;24.11;40.50;99981.59;10374617;28;20069;-71
2022/08/28 20:24:38;;;;;;;11.70;3.40;;;;;;;24.23;41.99;100013.94;10374790;28;20034;-71
2022/08/28 20:29:38;;;;;;;9.88;2.67;;;;;;;24.18;43.13;100012.03;10390148;28;20046;-72
2022/08/28 20:34:39;;;;;;;9.13;2.90;;;;;;;23.91;44.72;99979.63;10373152;28;20061;-71
2022/08/28 20:39:40;;;;;;;8.50;3.20;;;;;;;24.09;45.60;100003.56;10373126;28;20049;-72
2022/08/28 20:44:41;;;;;;;10.02;2.90;;;;;;;23.95;46.66;100009.75;10373088;28;20418;-72
2022/08/28 20:49:42;;;;;;;12.65;3.05;;;;;;;23.94;48.20;100010.84;10372209;28;20117;-71
2022/08/28 20:54:43;;;;;;;8.93;3.00;;;;;;;23.84;49.42;100006.16;10372387;28;20070;-71
2022/08/28 20:59:46;;;;;;;8.63;3.30;;;;;;;23.79;50.12;99998.03;10372592;28;20040;-71
2022/08/28 21:04:48;;;;;;;7.25;2.75;;;;;;;23.33;50.87;99919.09;10372830;28;20073;-70
2022/08/28 21:09:50;;;;;;;8.00;3.00;;;;;;;23.58;51.79;99973.47;10371618;28;20037;-71
2022/08/28 21:14:51;;;;;;;10.73;3.05;;;;;;;23.18;52.44;99920.69;10372741;28;20371;-71
2022/08/28 21:19:52;;;;;;;8.02;2.88;;;;;;;23.67;52.56;99985.47;10373130;28;20042;-71
2022/08/28 21:24:53;;;;;;;12.40;3.05;;;;;;;23.64;52.84;100004.16;10373068;28;20425;-72
2022/08/28 21:29:56;;;;;;;15.77;2.97;;;;;;;23.55;53.91;99992.97;10372503;28;20041;-70
2022/08/28 21:34:57;;;;;;;7.23;2.53;;;;;;;23.56;53.53;100005.44;10373096;28;20486;-71
2022/08/28 21:39:59;;;;;;;10.02;3.28;;;;;;;23.52;53.54;99998.94;10372145;28;20128;-71
2022/08/28 21:45:00;;;;;;;10.07;3.05;;;;;;;23.23;54.23;99961.34;10371971;28;20034;-71
2022/08/28 21:50:01;;;;;;;11.15;3.00;;;;;;;23.37;54.69;99996.94;10371855;28;20091;-72
2022/08/28 21:55:07;;;;;;;8.35;2.60;;;;;;;23.16;56.31;99987.84;10371153;28;20144;-71
2022/08/28 22:00:14;;;;;;;8.70;3.45;;;;;;;22.72;56.32;99939.25;10373685;28;20050;-71
2022/08/28 22:05:15;;;;;;;13.75;3.30;;;;;;;22.92;56.32;99992.78;10379097;28;20053;-72
2022/08/28 22:10:16;;;;;;;11.00;3.00;;;;;;;22.61;56.42;99956.47;10394019;28;20038;-72
2022/08/28 22:15:17;;;;;;;13.45;3.20;;;;;;;22.72;57.08;99990.69;10379084;28;20042;-72
2022/08/28 22:20:18;;;;;;;10.43;3.47;;;;;;;22.73;57.37;100008.56;10379526;28;20121;-71
2022/08/28 22:25:19;;;;;;;11.18;2.90;;;;;;;22.74;57.36;100007.50;10378163;28;20061;-72
2022/08/28 22:30:20;;;;;;;12.43;3.20;;;;;;;22.67;57.89;100006.88;10378108;28;20559;-72
2022/08/28 22:35:21;;;;;;;13.00;2.95;;;;;;;22.63;58.21;100007.66;10378742;28;20052;-71
2022/08/28 22:40:23;;;;;;;17.30;3.97;;;;;;;22.53;58.79;100005.69;10378270;28;20077;-72
2022/08/28 22:45:24;;;;;;;7.82;2.67;;;;;;;22.53;58.79;100013.81;10377487;28;20571;-71
2022/08/28 22:50:25;;;;;;;11.43;2.75;;;;;;;22.37;59.32;99995.75;10377329;28;20041;-71
2022/08/28 22:55:26;;;;;;;12.55;3.22;;;;;;;22.35;59.44;99996.03;10377029;28;20065;-72
2022/08/28 23:00:28;;;;;;;11.23;2.67;;;;;;;21.91;59.78;99933.00;10377682;28;20497;-72
2022/08/28 23:05:31;;;;;;;11.90;2.88;;;;;;;22.50;59.92;100017.84;10377668;28;20145;-71
2022/08/28 23:10:32;;;;;;;9.57;2.90;;;;;;;22.44;59.87;99999.09;10375982;28;20096;-71
2022/08/28 23:15:33;;;;;;;8.82;2.70;;;;;;;22.51;60.12;100015.94;10375468;28;20096;-71
2022/08/28 23:20:34;;;;;;;11.68;3.03;;;;;;;22.38;60.65;100011.75;10376138;28;20115;-70
2022/08/28 23:25:35;;;;;;;13.00;3.35;;;;;;;21.95;61.20;99958.47;10376070;28;20042;-71